createdAt,value
2017-09-13T00:01:12.110Z,95300.44
2017-09-13T00:03:39.689Z,95305.19
2017-09-13T00:06:07.236Z,95312.06
2017-09-13T00:08:34.822Z,95308.34
2017-09-13T00:11:02.380Z,95315.00
2017-09-13T00:13:29.926Z,95320.25
2017-09-13T00:15:57.519Z,95316.08
2017-09-13T00:18:25.134Z,95320.98
2017-09-13T00:20:52.894Z,95331.04
2017-09-13T00:23:20.473Z,95330.73
2017-09-13T00:25:48.039Z,95335.80
2017-09-13T00:28:15.623Z,95330.82
2017-09-13T00:30:43.195Z,95340.62
2017-09-13T00:33:10.764Z,95338.44
2017-09-13T00:35:38.384Z,95342.78
2017-09-13T00:38:06.002Z,95339.22
2017-09-13T00:40:33.519Z,95343.02
2017-09-13T00:43:01.053Z,95346.88
2017-09-13T00:45:28.831Z,95347.05
2017-09-13T00:47:56.358Z,95341.27
2017-09-13T00:50:23.919Z,95341.24
2017-09-13T00:52:51.483Z,95340.23
2017-09-13T00:55:19.048Z,95345.16
2017-09-13T00:57:46.589Z,95345.53
2017-09-13T01:00:14.386Z,95345.36
2017-09-13T01:02:41.981Z,95337.92
2017-09-13T01:05:09.585Z,95344.04
2017-09-13T01:07:37.230Z,95351.90
2017-09-13T01:10:05.014Z,95345.69
2017-09-13T01:12:32.558Z,95344.30
2017-09-13T01:15:00.170Z,95348.22
2017-09-13T01:17:27.716Z,95346.83
2017-09-13T01:19:55.229Z,95348.55
2017-09-13T01:22:22.760Z,95355.73
2017-09-13T01:24:50.293Z,95357.22
2017-09-13T01:27:18.036Z,95354.20
2017-09-13T01:29:45.640Z,95355.95
2017-09-13T01:32:13.194Z,95360.09
2017-09-13T01:34:40.948Z,95361.48
2017-09-13T01:37:08.552Z,95359.53
2017-09-13T01:39:36.251Z,95358.79
2017-09-13T01:42:03.781Z,95359.17
2017-09-13T01:44:31.350Z,95362.02
2017-09-13T01:46:58.979Z,95359.06
2017-09-13T01:49:26.566Z,95359.80
2017-09-13T01:51:55.735Z,95357.50
2017-09-13T01:54:23.345Z,95354.47
2017-09-13T01:56:50.930Z,95357.16
2017-09-13T01:59:18.581Z,95359.92
2017-09-13T02:01:47.086Z,95355.64
2017-09-13T02:04:14.617Z,95364.88
2017-09-13T02:06:42.178Z,95353.55
2017-09-13T02:09:09.976Z,95356.52
2017-09-13T02:11:37.598Z,95361.05
2017-09-13T02:14:05.234Z,95357.69
2017-09-13T02:16:32.810Z,95359.66
2017-09-13T02:19:00.317Z,95365.78
2017-09-13T02:21:27.846Z,95369.52
2017-09-13T02:23:55.484Z,95374.22
2017-09-13T02:26:23.038Z,95376.73
2017-09-13T02:28:50.581Z,95383.88
2017-09-13T02:31:18.164Z,95379.59
2017-09-13T02:33:45.674Z,95374.28
2017-09-13T02:36:13.303Z,95376.86
2017-09-13T02:38:40.910Z,95376.08
2017-09-13T02:41:08.655Z,95374.13
2017-09-13T02:43:36.214Z,95367.22
2017-09-13T02:46:03.782Z,95373.42
2017-09-13T02:48:31.635Z,95364.98
2017-09-13T02:50:59.173Z,95367.55
2017-09-13T02:53:26.747Z,95369.27
2017-09-13T02:55:54.309Z,95362.14
2017-09-13T02:58:21.832Z,95354.48
2017-09-13T03:00:49.508Z,95368.80
2017-09-13T03:03:17.427Z,95362.42
2017-09-13T03:05:44.975Z,95363.81
2017-09-13T03:08:12.546Z,95371.28
2017-09-13T03:10:40.114Z,95367.61
2017-09-13T03:13:07.663Z,95370.09
2017-09-13T03:15:35.237Z,95375.34
2017-09-13T03:18:02.741Z,95383.97
2017-09-13T03:20:30.335Z,95390.19
2017-09-13T03:22:57.915Z,95386.56
2017-09-13T03:25:26.230Z,95378.50
2017-09-13T03:27:53.753Z,95383.30
2017-09-13T03:30:21.339Z,95381.41
2017-09-13T03:32:48.901Z,95393.20
2017-09-13T03:35:16.447Z,95389.00
2017-09-13T03:37:44.026Z,95394.45
2017-09-13T03:40:11.575Z,95388.22
2017-09-13T03:42:39.105Z,95385.27
2017-09-13T03:45:06.673Z,95373.19
2017-09-13T03:47:34.204Z,95383.53
2017-09-13T03:50:01.763Z,95381.29
2017-09-13T03:52:29.358Z,95386.45
2017-09-13T03:54:56.865Z,95387.86
2017-09-13T03:57:24.408Z,95387.13
2017-09-13T03:59:51.970Z,95392.96
2017-09-13T04:02:19.578Z,95388.88
2017-09-13T04:04:47.114Z,95391.63
2017-09-13T04:07:14.635Z,95390.66
2017-09-13T04:09:42.210Z,95394.19
2017-09-13T04:12:10.652Z,95400.84
2017-09-13T04:14:38.204Z,95392.23
2017-09-13T04:17:09.968Z,95397.45
2017-09-13T04:22:30.704Z,95398.17
2017-09-13T04:24:58.272Z,95405.45
2017-09-13T04:27:25.866Z,95407.41
2017-09-13T04:29:54.389Z,95401.49
2017-09-13T04:32:21.960Z,95404.34
2017-09-13T04:34:58.346Z,95412.75
2017-09-13T04:37:29.440Z,95416.85
2017-09-13T04:39:57.921Z,95413.31
2017-09-13T04:45:25.235Z,95419.06
2017-09-13T04:48:09.001Z,95429.72
2017-09-13T04:50:38.402Z,95435.29
2017-09-13T04:53:07.100Z,95436.42
2017-09-13T04:55:34.759Z,95428.58
2017-09-13T04:58:03.167Z,95425.03
2017-09-13T05:00:30.886Z,95419.04
2017-09-13T05:02:58.699Z,95418.97
2017-09-13T05:05:26.246Z,95420.11
2017-09-13T05:07:53.826Z,95422.50
2017-09-13T05:10:21.438Z,95425.27
2017-09-13T05:12:48.967Z,95427.89
2017-09-13T05:15:16.577Z,95436.97
2017-09-13T05:17:44.105Z,95426.84
2017-09-13T05:20:11.616Z,95430.13
2017-09-13T05:22:39.143Z,95432.19
2017-09-13T05:25:06.938Z,95425.33
2017-09-13T05:27:34.489Z,95428.59
2017-09-13T05:30:02.184Z,95431.83
2017-09-13T05:32:29.801Z,95452.08
2017-09-13T05:34:57.556Z,95449.91
2017-09-13T05:37:25.161Z,95439.79
2017-09-13T05:39:52.770Z,95439.13
2017-09-13T05:42:20.357Z,95445.41
2017-09-13T05:44:47.884Z,95439.39
2017-09-13T05:47:15.674Z,95442.94
2017-09-13T05:49:43.317Z,95439.45
2017-09-13T05:52:11.094Z,95446.52
2017-09-13T05:54:38.741Z,95451.77
2017-09-13T05:57:06.632Z,95449.12
2017-09-13T05:59:34.194Z,95446.52
2017-09-13T06:02:01.750Z,95450.69
2017-09-13T06:04:29.297Z,95450.89
2017-09-13T06:06:56.934Z,95451.52
2017-09-13T06:09:24.539Z,95459.03
2017-09-13T06:11:52.288Z,95464.46
2017-09-13T06:14:19.963Z,95461.58
2017-09-13T06:16:47.519Z,95474.06
2017-09-13T06:19:15.138Z,95478.77
2017-09-13T06:21:42.738Z,95480.30
2017-09-13T06:24:10.309Z,95484.67
2017-09-13T06:26:37.931Z,95480.89
2017-09-13T06:29:05.603Z,95491.25
2017-09-13T06:31:33.225Z,95484.41
2017-09-13T06:34:01.174Z,95490.73
2017-09-13T06:36:28.744Z,95491.24
2017-09-13T06:38:56.340Z,95490.94
2017-09-13T06:41:23.906Z,95488.25
2017-09-13T06:43:51.577Z,95491.74
2017-09-13T06:46:19.159Z,95493.23
2017-09-13T06:48:46.705Z,95489.27
2017-09-13T06:51:14.281Z,95497.61
2017-09-13T06:53:41.847Z,95490.66
2017-09-13T06:56:09.397Z,95491.23
2017-09-13T06:58:36.947Z,95501.75
2017-09-13T07:01:04.506Z,95504.59
2017-09-13T07:03:32.083Z,95498.45
2017-09-13T07:05:59.593Z,95508.09
2017-09-13T07:08:27.155Z,95504.14
2017-09-13T07:10:54.681Z,95511.06
2017-09-13T07:13:22.251Z,95509.03
2017-09-13T07:15:49.832Z,95523.80
2017-09-13T07:18:17.342Z,95522.22
2017-09-13T07:20:44.876Z,95524.92
2017-09-13T07:23:12.454Z,95530.04
2017-09-13T07:25:40.081Z,95534.91
2017-09-13T07:28:07.626Z,95527.25
2017-09-13T07:30:35.235Z,95531.80
2017-09-13T07:33:02.754Z,95539.47
2017-09-13T07:35:30.274Z,95535.06
2017-09-13T07:37:57.888Z,95541.55
2017-09-13T07:40:25.665Z,95540.41
2017-09-13T07:42:53.247Z,95544.91
2017-09-13T07:45:20.817Z,95541.33
2017-09-13T07:47:48.350Z,95547.55
2017-09-13T07:50:15.889Z,95544.92
2017-09-13T07:52:43.450Z,95544.03
2017-09-13T07:55:10.979Z,95541.56
2017-09-13T07:57:38.510Z,95544.05
2017-09-13T08:00:06.379Z,95543.45
2017-09-13T08:02:33.893Z,95538.20
2017-09-13T08:05:03.207Z,95539.70
2017-09-13T08:07:30.835Z,95535.16
2017-09-13T08:09:58.557Z,95540.54
2017-09-13T08:12:26.286Z,95540.92
2017-09-13T08:14:53.989Z,95544.83
2017-09-13T08:17:22.354Z,95549.08
2017-09-13T08:19:49.882Z,95545.70
2017-09-13T08:22:17.454Z,95541.75
2017-09-13T08:24:44.979Z,95546.41
2017-09-13T08:27:12.607Z,95542.25
2017-09-13T08:29:40.163Z,95536.52
2017-09-13T08:32:07.822Z,95535.89
2017-09-13T08:34:35.579Z,95541.19
2017-09-13T08:37:03.095Z,95531.20
2017-09-13T08:39:30.643Z,95538.33
2017-09-13T08:41:58.150Z,95531.48
2017-09-13T08:44:25.674Z,95533.47
2017-09-13T08:46:53.211Z,95541.89
2017-09-13T08:49:20.718Z,95542.24
2017-09-13T08:51:48.450Z,95553.01
2017-09-13T08:54:16.006Z,95557.52
2017-09-13T08:56:43.559Z,95544.64
2017-09-13T08:59:11.339Z,95547.94
2017-09-13T09:01:38.895Z,95554.52
2017-09-13T09:04:06.419Z,95554.50
2017-09-13T09:06:34.424Z,95545.76
2017-09-13T09:09:01.994Z,95549.70
2017-09-13T09:11:29.586Z,95547.55
2017-09-13T09:13:57.983Z,95545.39
2017-09-13T09:16:25.572Z,95552.53
2017-09-13T09:18:53.108Z,95548.88
2017-09-13T09:21:20.685Z,95550.88
2017-09-13T09:23:48.241Z,95556.02
2017-09-13T09:26:15.871Z,95554.47
2017-09-13T09:28:43.368Z,95562.11
2017-09-13T09:31:11.100Z,95564.03
2017-09-13T09:33:38.652Z,95565.48
2017-09-13T09:36:06.249Z,95570.98
2017-09-13T09:38:33.922Z,95570.45
2017-09-13T09:41:01.444Z,95564.42
2017-09-13T09:43:29.008Z,95567.33
2017-09-13T09:45:56.646Z,95563.48
2017-09-13T09:48:24.198Z,95571.67
2017-09-13T09:50:51.733Z,95566.98
2017-09-13T09:53:20.148Z,95570.55
2017-09-13T09:55:47.721Z,95575.38
2017-09-13T09:58:15.254Z,95575.89
2017-09-13T10:00:42.858Z,95575.50
2017-09-13T10:03:10.442Z,95576.04
2017-09-13T10:05:38.036Z,95574.11
2017-09-13T10:08:05.635Z,95567.98
2017-09-13T10:10:33.374Z,95581.91
2017-09-13T10:13:00.912Z,95580.09
2017-09-13T10:15:28.494Z,95580.33
2017-09-13T10:17:56.036Z,95579.13
2017-09-13T10:20:23.571Z,95574.86
2017-09-13T10:22:51.145Z,95575.48
2017-09-13T10:25:18.735Z,95575.14
2017-09-13T10:27:46.304Z,95578.89
2017-09-13T10:30:13.998Z,95579.78
2017-09-13T10:32:41.840Z,95589.27
2017-09-13T10:35:09.602Z,95591.25
2017-09-13T10:37:37.218Z,95587.55
2017-09-13T10:40:05.490Z,95577.87
2017-09-13T10:42:33.253Z,95578.30
2017-09-13T10:45:00.830Z,95585.22
2017-09-13T10:47:28.412Z,95587.60
2017-09-13T10:49:55.983Z,95586.66
2017-09-13T10:52:23.612Z,95581.17
2017-09-13T10:54:51.149Z,95578.25
2017-09-13T10:57:18.783Z,95577.22
2017-09-13T10:59:46.385Z,95572.56
2017-09-13T11:02:13.991Z,95567.77
2017-09-13T11:04:42.426Z,95562.82
2017-09-13T11:07:10.044Z,95559.66
2017-09-13T11:09:37.651Z,95552.02
2017-09-13T11:12:05.170Z,95545.91
2017-09-13T11:14:32.705Z,95549.63
2017-09-13T11:17:00.431Z,95547.53
2017-09-13T11:19:28.003Z,95545.25
2017-09-13T11:21:55.628Z,95541.89
2017-09-13T11:24:23.209Z,95545.03
2017-09-13T11:26:50.844Z,95543.38
2017-09-13T11:29:18.467Z,95538.84
2017-09-13T11:31:46.506Z,95546.75
2017-09-13T11:34:14.173Z,95539.88
2017-09-13T11:36:41.789Z,95556.30
2017-09-13T11:39:09.376Z,95542.56
2017-09-13T11:41:36.922Z,95552.91
2017-09-13T11:44:04.483Z,95544.67
2017-09-13T11:46:32.021Z,95544.72
2017-09-13T11:48:59.543Z,95543.31
2017-09-13T11:51:27.292Z,95534.34
2017-09-13T11:53:54.861Z,95536.39
2017-09-13T11:56:22.461Z,95540.84
2017-09-13T11:58:50.189Z,95543.77
2017-09-13T12:01:18.055Z,95541.28
2017-09-13T12:03:45.629Z,95536.59
2017-09-13T12:06:13.434Z,95530.98
2017-09-13T12:08:41.015Z,95534.59
2017-09-13T12:11:08.557Z,95530.98
2017-09-13T12:13:36.126Z,95537.47
2017-09-13T12:16:03.746Z,95530.45
2017-09-13T12:18:31.298Z,95523.41
2017-09-13T12:20:59.988Z,95523.91
2017-09-13T12:23:27.598Z,95528.41
2017-09-13T12:25:55.374Z,95540.02
2017-09-13T12:28:22.904Z,95539.75
2017-09-13T12:30:50.475Z,95535.37
2017-09-13T12:33:18.094Z,95545.97
2017-09-13T12:35:45.630Z,95532.27
2017-09-13T12:38:13.200Z,95541.72
2017-09-13T12:40:40.775Z,95541.47
2017-09-13T12:43:08.551Z,95546.67
2017-09-13T12:45:36.194Z,95532.52
2017-09-13T12:48:03.754Z,95544.80
2017-09-13T12:50:31.507Z,95543.84
2017-09-13T12:52:59.114Z,95543.72
2017-09-13T12:55:26.665Z,95542.46
2017-09-13T12:57:54.210Z,95537.33
2017-09-13T13:00:21.913Z,95538.00
2017-09-13T13:02:49.674Z,95538.17
2017-09-13T13:05:17.562Z,95541.70
2017-09-13T13:07:45.380Z,95544.36
2017-09-13T13:10:13.457Z,95538.66
2017-09-13T13:12:41.590Z,95537.66
2017-09-13T13:15:09.185Z,95535.94
2017-09-13T13:17:36.772Z,95530.92
2017-09-13T13:20:04.398Z,95539.70
2017-09-13T13:22:32.009Z,95531.50
2017-09-13T13:24:59.818Z,95532.84
2017-09-13T13:27:27.365Z,95528.48
2017-09-13T13:29:54.958Z,95531.62
2017-09-13T13:32:23.094Z,95526.34
2017-09-13T13:34:50.854Z,95529.58
2017-09-13T13:37:18.402Z,95530.36
2017-09-13T13:39:45.973Z,95529.02
2017-09-13T13:42:13.596Z,95534.07
2017-09-13T13:44:41.122Z,95532.74
2017-09-13T13:47:08.698Z,95534.97
2017-09-13T13:49:36.228Z,95539.30
2017-09-13T13:52:03.769Z,95536.00
2017-09-13T13:54:31.853Z,95536.38
2017-09-13T13:56:59.377Z,95533.27
2017-09-13T13:59:26.890Z,95532.55
2017-09-13T14:01:54.469Z,95543.91
2017-09-13T14:04:22.038Z,95547.17
2017-09-13T14:06:49.637Z,95546.64
2017-09-13T14:09:17.255Z,95547.43
2017-09-13T14:11:44.779Z,95552.45
2017-09-13T14:14:12.302Z,95554.59
2017-09-13T14:16:39.971Z,95553.48
2017-09-13T14:19:07.610Z,95547.36
2017-09-13T14:21:35.139Z,95545.28
2017-09-13T14:24:02.781Z,95548.51
2017-09-13T14:26:30.337Z,95552.16
2017-09-13T14:28:57.894Z,95544.94
2017-09-13T14:31:25.476Z,95539.80
2017-09-13T14:33:53.290Z,95535.88
2017-09-13T14:36:20.842Z,95538.08
2017-09-13T14:38:48.446Z,95542.77
2017-09-13T14:41:16.257Z,95550.56
2017-09-13T14:43:43.818Z,95540.38
2017-09-13T14:46:11.378Z,95544.23
2017-09-13T14:48:38.913Z,95540.67
2017-09-13T14:51:06.429Z,95545.45
2017-09-13T14:53:34.034Z,95545.91
2017-09-13T14:56:01.601Z,95547.11
2017-09-13T14:58:29.237Z,95544.64
2017-09-13T15:00:57.027Z,95547.44
2017-09-13T15:03:24.804Z,95547.13
2017-09-13T15:05:52.378Z,95544.95
2017-09-13T15:08:19.937Z,95543.68
2017-09-13T15:10:48.046Z,95542.27
2017-09-13T15:13:15.621Z,95550.08
2017-09-13T15:15:43.175Z,95543.99
2017-09-13T15:18:10.792Z,95539.81
2017-09-13T15:20:38.334Z,95549.89
2017-09-13T15:23:05.910Z,95550.58
2017-09-13T15:25:33.452Z,95547.56
2017-09-13T15:28:00.990Z,95553.80
2017-09-13T15:30:28.713Z,95547.67
2017-09-13T15:32:56.316Z,95554.27
2017-09-13T15:35:24.070Z,95541.56
2017-09-13T15:37:51.718Z,95544.01
2017-09-13T15:40:19.335Z,95549.73
2017-09-13T15:42:47.337Z,95549.20
2017-09-13T15:45:15.016Z,95558.04
2017-09-13T15:47:42.560Z,95562.50
2017-09-13T15:50:10.098Z,95564.77
2017-09-13T15:52:37.773Z,95562.55
2017-09-13T15:55:05.423Z,95563.34
2017-09-13T15:57:33.171Z,95558.45
2017-09-13T16:00:00.746Z,95561.81
2017-09-13T16:02:28.375Z,95564.27
2017-09-13T16:04:55.951Z,95560.92
2017-09-13T16:07:23.538Z,95559.81
2017-09-13T16:09:51.128Z,95560.47
2017-09-13T16:12:18.813Z,95565.69
2017-09-13T16:14:46.876Z,95563.23
2017-09-13T16:17:14.483Z,95567.10
2017-09-13T16:19:43.753Z,95562.89
2017-09-13T16:22:11.339Z,95558.30
2017-09-13T16:24:38.935Z,95551.81
2017-09-13T16:27:06.483Z,95560.27
2017-09-13T16:29:35.095Z,95557.02
2017-09-13T16:32:02.730Z,95563.67
2017-09-13T16:34:30.372Z,95565.89
2017-09-13T16:36:57.996Z,95568.38
2017-09-13T16:39:25.641Z,95557.55
2017-09-13T16:41:53.373Z,95565.91
2017-09-13T16:44:21.052Z,95569.61
2017-09-13T16:46:48.680Z,95573.27
2017-09-13T16:49:16.356Z,95572.52
2017-09-13T16:51:44.156Z,95568.58
2017-09-13T16:54:11.773Z,95576.14
2017-09-13T16:56:39.418Z,95585.63
2017-09-13T16:59:06.986Z,95581.92
2017-09-13T17:01:34.596Z,95585.20
2017-09-13T17:04:02.175Z,95591.71
2017-09-13T17:06:29.730Z,95595.52
2017-09-13T17:08:57.555Z,95597.41
2017-09-13T17:11:25.553Z,95603.79
2017-09-13T17:13:53.113Z,95604.58
2017-09-13T17:16:20.745Z,95612.72
2017-09-13T17:18:48.386Z,95607.28
2017-09-13T17:21:16.178Z,95609.08
2017-09-13T17:23:43.800Z,95623.89
2017-09-13T17:26:11.370Z,95625.83
2017-09-13T17:28:38.961Z,95623.08
2017-09-13T17:31:06.641Z,95623.11
2017-09-13T17:33:34.511Z,95623.11
2017-09-13T17:36:02.700Z,95629.45
2017-09-13T17:38:30.355Z,95632.28
2017-09-13T17:40:57.979Z,95635.06
2017-09-13T17:43:25.526Z,95636.09
2017-09-13T17:45:53.175Z,95647.58
2017-09-13T17:48:21.109Z,95640.26
2017-09-13T17:50:48.938Z,95640.22
2017-09-13T17:53:16.563Z,95650.13
2017-09-13T17:55:44.135Z,95651.12
2017-09-13T17:58:11.700Z,95647.71
2017-09-13T18:00:39.360Z,95657.98
2017-09-13T18:03:06.952Z,95664.73
2017-09-13T18:05:35.459Z,95659.38
2017-09-13T18:08:03.092Z,95659.22
2017-09-13T18:10:30.698Z,95659.95
2017-09-13T18:12:58.289Z,95662.22
2017-09-13T18:15:25.884Z,95657.41
2017-09-13T18:17:53.503Z,95657.95
2017-09-13T18:20:21.067Z,95661.35
2017-09-13T18:22:48.675Z,95670.45
2017-09-13T18:25:16.226Z,95661.02
2017-09-13T18:27:43.810Z,95663.77
2017-09-13T18:30:11.429Z,95660.36
2017-09-13T18:32:39.054Z,95660.09
2017-09-13T18:35:06.611Z,95664.00
2017-09-13T18:37:34.194Z,95666.55
2017-09-13T18:40:01.811Z,95668.91
2017-09-13T18:42:29.374Z,95675.17
2017-09-13T18:44:57.004Z,95676.34
2017-09-13T18:47:25.057Z,95675.13
2017-09-13T18:49:52.632Z,95672.33
2017-09-13T18:52:20.247Z,95676.93
2017-09-13T18:54:48.435Z,95681.42
2017-09-13T18:57:15.993Z,95685.00
2017-09-13T18:59:43.564Z,95683.77
2017-09-13T19:02:11.216Z,95682.13
2017-09-13T19:04:38.798Z,95685.07
2017-09-13T19:07:09.786Z,95685.45
2017-09-13T19:09:37.464Z,95685.98
2017-09-13T19:12:05.943Z,95691.30
2017-09-13T19:14:33.750Z,95692.78
2017-09-13T19:17:02.630Z,95666.67
2017-09-13T19:19:30.210Z,95690.27
2017-09-13T19:21:59.678Z,95695.94
2017-09-13T19:24:31.201Z,95696.61
2017-09-13T19:26:58.824Z,95705.66
2017-09-13T19:29:27.828Z,95698.80
2017-09-13T19:31:56.663Z,95705.53
2017-09-13T19:34:24.760Z,95707.34
2017-09-13T19:36:52.519Z,95702.65
2017-09-13T19:39:20.120Z,95704.16
2017-09-13T19:41:47.717Z,95712.84
2017-09-13T19:44:15.606Z,95709.78
2017-09-13T19:46:46.230Z,95707.26
2017-09-13T19:49:17.125Z,95711.84
2017-09-13T19:51:47.607Z,95708.33
2017-09-13T19:54:20.136Z,95715.02
2017-09-13T19:56:47.718Z,95714.85
2017-09-13T19:59:18.236Z,95716.05
2017-09-13T20:01:48.484Z,95717.83
2017-09-13T20:04:19.091Z,95725.29
2017-09-13T20:06:46.626Z,95733.92
2017-09-13T20:09:14.250Z,95734.13
2017-09-13T20:11:42.137Z,95726.47
2017-09-13T20:14:10.600Z,95733.36
2017-09-13T20:16:41.448Z,95729.83
2017-09-13T20:19:09.204Z,95733.97
2017-09-13T20:21:38.735Z,95734.13
2017-09-13T20:24:06.360Z,95733.54
2017-09-13T20:26:37.017Z,95734.31
2017-09-13T20:29:07.659Z,95730.01
2017-09-13T20:31:35.949Z,95737.66
2017-09-13T20:34:04.538Z,95732.75
2017-09-13T20:36:32.251Z,95745.88
2017-09-13T20:38:59.902Z,95726.47
2017-09-13T20:41:27.683Z,95730.41
2017-09-13T20:43:55.269Z,95722.94
2017-09-13T20:46:22.929Z,95725.71
2017-09-13T20:48:50.556Z,95726.67
2017-09-13T20:51:18.779Z,95736.31
2017-09-13T20:53:46.379Z,95727.65
2017-09-13T20:56:13.968Z,95723.73
2017-09-13T20:58:41.499Z,95732.72
2017-09-13T21:01:10.023Z,95739.38
2017-09-13T21:03:37.579Z,95735.48
2017-09-13T21:06:05.203Z,95741.75
2017-09-13T21:08:32.789Z,95749.21
2017-09-13T21:11:00.733Z,95747.98
2017-09-13T21:13:28.262Z,95751.06
2017-09-13T21:15:55.821Z,95743.02
2017-09-13T21:18:23.369Z,95741.99
2017-09-13T21:20:50.908Z,95741.02
2017-09-13T21:23:18.538Z,95741.65
2017-09-13T21:25:46.095Z,95738.72
2017-09-13T21:28:13.636Z,95740.64
2017-09-13T21:30:41.212Z,95742.67
2017-09-13T21:33:09.102Z,95748.06
2017-09-13T21:35:36.643Z,95749.27
2017-09-13T21:38:04.457Z,95749.20
2017-09-13T21:40:32.006Z,95744.05
2017-09-13T21:42:59.579Z,95744.62
2017-09-13T21:45:27.202Z,95741.92
2017-09-13T21:47:54.754Z,95743.10
2017-09-13T21:50:22.590Z,95738.20
2017-09-13T21:52:50.182Z,95741.17
2017-09-13T21:55:17.752Z,95746.94
2017-09-13T21:57:45.357Z,95739.05
2017-09-13T22:00:12.930Z,95738.08
2017-09-13T22:02:40.644Z,95745.47
2017-09-13T22:05:08.173Z,95742.29
2017-09-13T22:07:35.760Z,95747.05
2017-09-13T22:10:03.615Z,95752.68
2017-09-13T22:12:31.558Z,95751.31
2017-09-13T22:14:59.209Z,95754.41
2017-09-13T22:17:26.754Z,95752.23
2017-09-13T22:19:54.356Z,95755.15
2017-09-13T22:22:21.934Z,95756.74
2017-09-13T22:24:49.736Z,95749.72
2017-09-13T22:27:17.281Z,95753.20
2017-09-13T22:29:44.870Z,95756.13
2017-09-13T22:32:12.506Z,95753.86
2017-09-13T22:34:40.096Z,95749.28
2017-09-13T22:37:07.650Z,95750.43
2017-09-13T22:39:35.295Z,95761.21
2017-09-13T22:42:02.818Z,95760.05
2017-09-13T22:44:30.346Z,95759.66
2017-09-13T22:46:57.954Z,95756.41
2017-09-13T22:49:25.821Z,95761.53
2017-09-13T22:51:53.381Z,95755.61
2017-09-13T22:54:20.973Z,95756.93
2017-09-13T22:56:48.549Z,95753.79
2017-09-13T22:59:16.159Z,95748.61
2017-09-13T23:01:43.805Z,95749.86
2017-09-13T23:04:11.394Z,95758.34
2017-09-13T23:06:38.982Z,95755.34
2017-09-13T23:09:06.578Z,95752.38
2017-09-13T23:11:34.187Z,95750.32
2017-09-13T23:14:01.795Z,95762.66
2017-09-13T23:16:29.403Z,95760.70
2017-09-13T23:18:56.995Z,95762.93
2017-09-13T23:21:24.939Z,95760.64
2017-09-13T23:23:52.523Z,95760.08
2017-09-13T23:26:20.269Z,95759.73
2017-09-13T23:28:47.835Z,95764.63
2017-09-13T23:31:15.441Z,95768.17
2017-09-13T23:33:43.081Z,95762.80
2017-09-13T23:36:10.614Z,95765.03
2017-09-13T23:38:38.231Z,95762.71
2017-09-13T23:41:05.801Z,95765.43
2017-09-13T23:43:33.406Z,95764.75
2017-09-13T23:46:01.029Z,95759.89
2017-09-13T23:48:28.597Z,95766.50
2017-09-13T23:50:56.161Z,95762.23
2017-09-13T23:53:23.735Z,95759.83
2017-09-13T23:55:51.277Z,95760.67
2017-09-13T23:58:19.052Z,95760.59
